sensor_id;sensor_type;location;lat;lon;timestamp;temperature;humidity
30764;DHT22;17497;51.476;7.770;2022-09-21T00:01:14;9.20;99.90
30764;DHT22;17497;51.476;7.770;2022-09-21T00:03:42;9.20;99.90
30764;DHT22;17497;51.476;7.770;2022-09-21T00:06:12;9.20;99.90
30764;DHT22;17497;51.476;7.770;2022-09-21T00:08:39;9.20;99.90
30764;DHT22;17497;51.476;7.770;2022-09-21T00:11:10;9.10;99.90
30764;DHT22;17497;51.476;7.770;2022-09-21T00:13:36;9.00;99.90
30764;DHT22;17497;51.476;7.770;2022-09-21T00:16:05;9.10;99.90
30764;DHT22;17497;51.476;7.770;2022-09-21T00:18:32;9.00;99.90
30764;DHT22;17497;51.476;7.770;2022-09-21T00:21:00;8.80;99.90
30764;DHT22;17497;51.476;7.770;2022-09-21T00:26:07;8.70;99.90
30764;DHT22;17497;51.476;7.770;2022-09-21T00:28:34;8.70;99.90
30764;DHT22;17497;51.476;7.770;2022-09-21T00:31:03;8.80;99.90
30764;DHT22;17497;51.476;7.770;2022-09-21T00:33:30;8.70;99.90
30764;DHT22;17497;51.476;7.770;2022-09-21T00:36:06;8.60;99.90
30764;DHT22;17497;51.476;7.770;2022-09-21T00:38:35;8.70;99.90
30764;DHT22;17497;51.476;7.770;2022-09-21T00:41:03;8.60;99.90
30764;DHT22;17497;51.476;7.770;2022-09-21T00:43:32;8.50;99.90
30764;DHT22;17497;51.476;7.770;2022-09-21T00:46:03;8.50;99.90
30764;DHT22;17497;51.476;7.770;2022-09-21T00:48:31;8.60;99.90
30764;DHT22;17497;51.476;7.770;2022-09-21T00:51:02;8.50;99.90
30764;DHT22;17497;51.476;7.770;2022-09-21T00:53:31;8.40;99.90
30764;DHT22;17497;51.476;7.770;2022-09-21T00:56:00;8.50;99.90
30764;DHT22;17497;51.476;7.770;2022-09-21T00:58:34;8.60;99.90
30764;DHT22;17497;51.476;7.770;2022-09-21T01:01:04;8.50;99.90
30764;DHT22;17497;51.476;7.770;2022-09-21T01:03:32;8.50;99.90
30764;DHT22;17497;51.476;7.770;2022-09-21T01:05:58;8.30;99.90
30764;DHT22;17497;51.476;7.770;2022-09-21T01:08:26;8.30;99.90
30764;DHT22;17497;51.476;7.770;2022-09-21T01:11:24;8.40;99.90
30764;DHT22;17497;51.476;7.770;2022-09-21T01:14:13;8.40;99.90
30764;DHT22;17497;51.476;7.770;2022-09-21T01:19:53;8.40;99.90
30764;DHT22;17497;51.476;7.770;2022-09-21T01:29:58;8.50;99.90
30764;DHT22;17497;51.476;7.770;2022-09-21T01:32:34;8.50;99.90
30764;DHT22;17497;51.476;7.770;2022-09-21T01:35:06;8.50;99.90
30764;DHT22;17497;51.476;7.770;2022-09-21T01:37:38;8.50;99.90
30764;DHT22;17497;51.476;7.770;2022-09-21T01:40:49;8.60;99.90
30764;DHT22;17497;51.476;7.770;2022-09-21T01:43:21;8.60;99.90
30764;DHT22;17497;51.476;7.770;2022-09-21T01:45:52;8.50;99.90
30764;DHT22;17497;51.476;7.770;2022-09-21T01:48:22;8.50;99.90
30764;DHT22;17497;51.476;7.770;2022-09-21T01:50:53;8.50;99.90
30764;DHT22;17497;51.476;7.770;2022-09-21T01:53:34;8.50;99.90
30764;DHT22;17497;51.476;7.770;2022-09-21T01:56:16;8.50;99.90
30764;DHT22;17497;51.476;7.770;2022-09-21T02:01:42;8.50;99.90
30764;DHT22;17497;51.476;7.770;2022-09-21T02:04:12;8.50;99.90
30764;DHT22;17497;51.476;7.770;2022-09-21T02:06:42;8.50;99.90
30764;DHT22;17497;51.476;7.770;2022-09-21T02:09:10;8.40;99.90
30764;DHT22;17497;51.476;7.770;2022-09-21T02:14:17;8.30;99.90
30764;DHT22;17497;51.476;7.770;2022-09-21T02:22:35;8.20;99.90
30764;DHT22;17497;51.476;7.770;2022-09-21T02:25:17;8.20;99.90
30764;DHT22;17497;51.476;7.770;2022-09-21T02:28:02;8.20;99.90
30764;DHT22;17497;51.476;7.770;2022-09-21T02:30:33;8.20;99.90
30764;DHT22;17497;51.476;7.770;2022-09-21T02:33:23;8.20;99.90
30764;DHT22;17497;51.476;7.770;2022-09-21T02:35:53;8.20;99.90
30764;DHT22;17497;51.476;7.770;2022-09-21T02:38:34;8.20;99.90
30764;DHT22;17497;51.476;7.770;2022-09-21T02:41:29;8.20;99.90
30764;DHT22;17497;51.476;7.770;2022-09-21T02:44:10;8.10;99.90
30764;DHT22;17497;51.476;7.770;2022-09-21T02:46:52;8.10;99.90
30764;DHT22;17497;51.476;7.770;2022-09-21T02:49:53;7.80;99.90
30764;DHT22;17497;51.476;7.770;2022-09-21T02:52:22;7.80;99.90
30764;DHT22;17497;51.476;7.770;2022-09-21T02:54:52;7.80;99.90
30764;DHT22;17497;51.476;7.770;2022-09-21T02:57:22;7.90;99.90
30764;DHT22;17497;51.476;7.770;2022-09-21T02:59:50;7.90;99.90
30764;DHT22;17497;51.476;7.770;2022-09-21T03:02:17;7.80;99.90
30764;DHT22;17497;51.476;7.770;2022-09-21T03:04:46;7.80;99.90
30764;DHT22;17497;51.476;7.770;2022-09-21T03:07:14;7.80;99.90
30764;DHT22;17497;51.476;7.770;2022-09-21T03:09:41;7.80;99.90
30764;DHT22;17497;51.476;7.770;2022-09-21T03:12:08;7.80;99.90
30764;DHT22;17497;51.476;7.770;2022-09-21T03:14:35;7.80;99.90
30764;DHT22;17497;51.476;7.770;2022-09-21T03:17:02;7.80;99.90
30764;DHT22;17497;51.476;7.770;2022-09-21T03:19:28;7.90;99.90
30764;DHT22;17497;51.476;7.770;2022-09-21T03:21:55;7.90;99.90
30764;DHT22;17497;51.476;7.770;2022-09-21T03:24:22;7.90;99.90
30764;DHT22;17497;51.476;7.770;2022-09-21T03:27:07;7.90;99.90
30764;DHT22;17497;51.476;7.770;2022-09-21T03:29:34;7.90;99.90
30764;DHT22;17497;51.476;7.770;2022-09-21T03:32:01;7.90;99.90
30764;DHT22;17497;51.476;7.770;2022-09-21T03:34:29;7.90;99.90
30764;DHT22;17497;51.476;7.770;2022-09-21T03:36:56;7.90;99.90
30764;DHT22;17497;51.476;7.770;2022-09-21T03:39:23;7.90;99.90
30764;DHT22;17497;51.476;7.770;2022-09-21T03:41:50;7.90;99.90
30764;DHT22;17497;51.476;7.770;2022-09-21T03:44:16;7.90;99.90
30764;DHT22;17497;51.476;7.770;2022-09-21T03:46:43;7.80;99.90
30764;DHT22;17497;51.476;7.770;2022-09-21T03:49:10;7.80;99.90
30764;DHT22;17497;51.476;7.770;2022-09-21T03:51:36;7.80;99.90
30764;DHT22;17497;51.476;7.770;2022-09-21T03:54:04;7.80;99.90
30764;DHT22;17497;51.476;7.770;2022-09-21T03:56:31;7.80;99.90
30764;DHT22;17497;51.476;7.770;2022-09-21T03:58:57;7.80;99.90
30764;DHT22;17497;51.476;7.770;2022-09-21T04:01:24;7.70;99.90
30764;DHT22;17497;51.476;7.770;2022-09-21T04:03:51;7.70;99.90
30764;DHT22;17497;51.476;7.770;2022-09-21T04:06:18;7.80;99.90
30764;DHT22;17497;51.476;7.770;2022-09-21T04:08:44;7.70;99.90
30764;DHT22;17497;51.476;7.770;2022-09-21T04:11:16;7.70;99.90
30764;DHT22;17497;51.476;7.770;2022-09-21T04:13:48;7.70;99.90
30764;DHT22;17497;51.476;7.770;2022-09-21T04:16:15;7.70;99.90
30764;DHT22;17497;51.476;7.770;2022-09-21T04:18:43;7.70;99.90
30764;DHT22;17497;51.476;7.770;2022-09-21T04:21:09;7.60;99.90
30764;DHT22;17497;51.476;7.770;2022-09-21T04:23:36;7.60;99.90
30764;DHT22;17497;51.476;7.770;2022-09-21T04:26:03;7.50;99.90
30764;DHT22;17497;51.476;7.770;2022-09-21T04:28:30;7.40;99.90
30764;DHT22;17497;51.476;7.770;2022-09-21T04:30:58;7.40;99.90
30764;DHT22;17497;51.476;7.770;2022-09-21T04:33:25;7.40;99.90
30764;DHT22;17497;51.476;7.770;2022-09-21T04:35:54;7.40;99.90
30764;DHT22;17497;51.476;7.770;2022-09-21T04:38:21;7.40;99.90
30764;DHT22;17497;51.476;7.770;2022-09-21T04:40:56;7.40;99.90
30764;DHT22;17497;51.476;7.770;2022-09-21T04:43:23;7.30;99.90
30764;DHT22;17497;51.476;7.770;2022-09-21T04:45:50;7.30;99.90
30764;DHT22;17497;51.476;7.770;2022-09-21T04:48:17;7.30;99.90
30764;DHT22;17497;51.476;7.770;2022-09-21T04:50:47;7.30;99.90
30764;DHT22;17497;51.476;7.770;2022-09-21T04:53:14;7.30;99.90
30764;DHT22;17497;51.476;7.770;2022-09-21T04:55:41;7.30;99.90
30764;DHT22;17497;51.476;7.770;2022-09-21T04:58:09;7.30;99.90
30764;DHT22;17497;51.476;7.770;2022-09-21T05:00:36;7.30;99.90
30764;DHT22;17497;51.476;7.770;2022-09-21T05:03:03;7.30;99.90
30764;DHT22;17497;51.476;7.770;2022-09-21T05:05:29;7.20;99.90
30764;DHT22;17497;51.476;7.770;2022-09-21T05:07:57;7.20;99.90
30764;DHT22;17497;51.476;7.770;2022-09-21T05:10:24;7.20;99.90
30764;DHT22;17497;51.476;7.770;2022-09-21T05:12:50;7.20;99.90
30764;DHT22;17497;51.476;7.770;2022-09-21T05:15:18;7.20;99.90
30764;DHT22;17497;51.476;7.770;2022-09-21T05:17:44;7.20;99.90
30764;DHT22;17497;51.476;7.770;2022-09-21T05:20:12;7.20;99.90
30764;DHT22;17497;51.476;7.770;2022-09-21T05:22:38;7.20;99.90
30764;DHT22;17497;51.476;7.770;2022-09-21T05:25:06;7.20;99.90
30764;DHT22;17497;51.476;7.770;2022-09-21T05:27:33;7.20;99.90
30764;DHT22;17497;51.476;7.770;2022-09-21T05:29:59;7.20;99.90
30764;DHT22;17497;51.476;7.770;2022-09-21T05:32:47;7.20;99.90
30764;DHT22;17497;51.476;7.770;2022-09-21T05:35:25;7.20;99.90
30764;DHT22;17497;51.476;7.770;2022-09-21T05:40:31;7.20;99.90
30764;DHT22;17497;51.476;7.770;2022-09-21T05:42:58;7.20;99.90
30764;DHT22;17497;51.476;7.770;2022-09-21T05:45:25;7.20;99.90
30764;DHT22;17497;51.476;7.770;2022-09-21T05:51:14;7.20;99.90
30764;DHT22;17497;51.476;7.770;2022-09-21T05:59:26;7.30;99.90
30764;DHT22;17497;51.476;7.770;2022-09-21T06:02:20;7.30;99.90
30764;DHT22;17497;51.476;7.770;2022-09-21T06:04:49;7.20;99.90
30764;DHT22;17497;51.476;7.770;2022-09-21T06:07:17;7.40;99.90
30764;DHT22;17497;51.476;7.770;2022-09-21T06:09:44;7.40;99.90
30764;DHT22;17497;51.476;7.770;2022-09-21T06:12:11;7.40;99.90
30764;DHT22;17497;51.476;7.770;2022-09-21T06:14:39;7.50;99.90
30764;DHT22;17497;51.476;7.770;2022-09-21T06:17:05;7.50;99.90
30764;DHT22;17497;51.476;7.770;2022-09-21T06:19:32;7.50;99.90
30764;DHT22;17497;51.476;7.770;2022-09-21T06:21:59;7.60;99.90
30764;DHT22;17497;51.476;7.770;2022-09-21T06:24:25;7.60;99.90
30764;DHT22;17497;51.476;7.770;2022-09-21T06:26:52;7.70;99.90
30764;DHT22;17497;51.476;7.770;2022-09-21T06:29:19;7.70;99.90
30764;DHT22;17497;51.476;7.770;2022-09-21T06:31:52;7.70;99.90
30764;DHT22;17497;51.476;7.770;2022-09-21T06:34:18;7.80;99.90
30764;DHT22;17497;51.476;7.770;2022-09-21T06:36:45;7.80;99.90
30764;DHT22;17497;51.476;7.770;2022-09-21T06:39:12;7.90;99.90
30764;DHT22;17497;51.476;7.770;2022-09-21T06:41:39;7.90;99.90
30764;DHT22;17497;51.476;7.770;2022-09-21T06:44:05;7.90;99.90
30764;DHT22;17497;51.476;7.770;2022-09-21T06:46:32;7.90;99.90
30764;DHT22;17497;51.476;7.770;2022-09-21T06:48:59;7.90;99.90
30764;DHT22;17497;51.476;7.770;2022-09-21T06:51:25;8.00;99.90
30764;DHT22;17497;51.476;7.770;2022-09-21T06:53:56;8.00;99.90
30764;DHT22;17497;51.476;7.770;2022-09-21T06:56:24;8.00;99.90
30764;DHT22;17497;51.476;7.770;2022-09-21T06:58:51;8.10;99.90
30764;DHT22;17497;51.476;7.770;2022-09-21T07:01:18;8.20;99.90
30764;DHT22;17497;51.476;7.770;2022-09-21T07:03:48;8.20;99.90
30764;DHT22;17497;51.476;7.770;2022-09-21T07:06:17;8.30;99.90
30764;DHT22;17497;51.476;7.770;2022-09-21T07:08:44;8.20;99.90
30764;DHT22;17497;51.476;7.770;2022-09-21T07:11:31;8.20;99.90
30764;DHT22;17497;51.476;7.770;2022-09-21T07:13:57;8.20;99.90
30764;DHT22;17497;51.476;7.770;2022-09-21T07:16:25;8.20;99.90
30764;DHT22;17497;51.476;7.770;2022-09-21T07:18:52;8.30;99.90
30764;DHT22;17497;51.476;7.770;2022-09-21T07:21:19;8.40;99.90
30764;DHT22;17497;51.476;7.770;2022-09-21T07:23:45;8.50;99.90
30764;DHT22;17497;51.476;7.770;2022-09-21T07:26:13;8.60;99.90
30764;DHT22;17497;51.476;7.770;2022-09-21T07:28:40;8.70;99.90
30764;DHT22;17497;51.476;7.770;2022-09-21T07:31:12;8.80;99.90
30764;DHT22;17497;51.476;7.770;2022-09-21T07:33:40;8.90;99.90
30764;DHT22;17497;51.476;7.770;2022-09-21T07:36:08;8.90;99.90
30764;DHT22;17497;51.476;7.770;2022-09-21T07:38:41;8.90;99.90
30764;DHT22;17497;51.476;7.770;2022-09-21T07:41:09;8.90;99.90
30764;DHT22;17497;51.476;7.770;2022-09-21T07:43:37;8.80;99.90
30764;DHT22;17497;51.476;7.770;2022-09-21T07:46:07;8.70;99.90
30764;DHT22;17497;51.476;7.770;2022-09-21T07:48:34;8.70;99.90
30764;DHT22;17497;51.476;7.770;2022-09-21T07:51:06;8.80;99.90
30764;DHT22;17497;51.476;7.770;2022-09-21T07:53:34;8.80;99.90
30764;DHT22;17497;51.476;7.770;2022-09-21T07:56:07;8.90;99.90
30764;DHT22;17497;51.476;7.770;2022-09-21T07:58:35;9.00;99.90
30764;DHT22;17497;51.476;7.770;2022-09-21T08:01:21;9.20;99.90
30764;DHT22;17497;51.476;7.770;2022-09-21T08:03:52;9.20;99.90
30764;DHT22;17497;51.476;7.770;2022-09-21T08:06:20;9.30;99.90
30764;DHT22;17497;51.476;7.770;2022-09-21T08:08:47;9.40;99.90
30764;DHT22;17497;51.476;7.770;2022-09-21T08:11:21;9.50;99.90
30764;DHT22;17497;51.476;7.770;2022-09-21T08:13:51;9.60;99.90
30764;DHT22;17497;51.476;7.770;2022-09-21T08:16:18;9.60;99.90
30764;DHT22;17497;51.476;7.770;2022-09-21T08:18:45;9.60;99.90
30764;DHT22;17497;51.476;7.770;2022-09-21T08:21:12;9.70;99.90
30764;DHT22;17497;51.476;7.770;2022-09-21T08:23:39;9.80;99.90
30764;DHT22;17497;51.476;7.770;2022-09-21T08:26:10;9.90;99.90
30764;DHT22;17497;51.476;7.770;2022-09-21T08:28:38;9.90;99.90
30764;DHT22;17497;51.476;7.770;2022-09-21T08:31:06;10.00;99.90
30764;DHT22;17497;51.476;7.770;2022-09-21T08:33:36;10.20;99.90
30764;DHT22;17497;51.476;7.770;2022-09-21T08:36:03;10.20;99.90
30764;DHT22;17497;51.476;7.770;2022-09-21T08:38:34;10.30;99.90
30764;DHT22;17497;51.476;7.770;2022-09-21T08:41:09;10.40;99.90
30764;DHT22;17497;51.476;7.770;2022-09-21T08:43:42;10.50;99.90
30764;DHT22;17497;51.476;7.770;2022-09-21T08:46:15;10.60;99.90
30764;DHT22;17497;51.476;7.770;2022-09-21T08:48:53;10.80;99.90
30764;DHT22;17497;51.476;7.770;2022-09-21T08:51:24;10.90;99.90
30764;DHT22;17497;51.476;7.770;2022-09-21T08:53:56;10.90;99.90
30764;DHT22;17497;51.476;7.770;2022-09-21T08:56:24;11.10;99.90
30764;DHT22;17497;51.476;7.770;2022-09-21T08:59:12;11.10;99.90
30764;DHT22;17497;51.476;7.770;2022-09-21T09:15:50;11.70;99.90
30764;DHT22;17497;51.476;7.770;2022-09-21T09:18:44;11.80;99.90
30764;DHT22;17497;51.476;7.770;2022-09-21T09:21:19;12.00;99.90
30764;DHT22;17497;51.476;7.770;2022-09-21T09:24:03;12.20;99.90
30764;DHT22;17497;51.476;7.770;2022-09-21T09:26:36;12.30;99.90
30764;DHT22;17497;51.476;7.770;2022-09-21T09:31:50;12.60;99.90
30764;DHT22;17497;51.476;7.770;2022-09-21T09:34:39;12.60;99.90
30764;DHT22;17497;51.476;7.770;2022-09-21T09:37:15;12.70;99.90
30764;DHT22;17497;51.476;7.770;2022-09-21T09:39:45;12.80;99.90
30764;DHT22;17497;51.476;7.770;2022-09-21T09:50:31;13.80;99.90
30764;DHT22;17497;51.476;7.770;2022-09-21T09:53:05;14.00;99.90
30764;DHT22;17497;51.476;7.770;2022-09-21T09:55:40;14.40;99.90
30764;DHT22;17497;51.476;7.770;2022-09-21T10:00:54;15.10;99.90
30764;DHT22;17497;51.476;7.770;2022-09-21T10:03:26;15.60;99.90
30764;DHT22;17497;51.476;7.770;2022-09-21T10:05:53;16.10;99.90
30764;DHT22;17497;51.476;7.770;2022-09-21T10:11:03;16.90;99.90
30764;DHT22;17497;51.476;7.770;2022-09-21T10:13:32;17.50;99.90
30764;DHT22;17497;51.476;7.770;2022-09-21T10:16:11;17.90;99.90
30764;DHT22;17497;51.476;7.770;2022-09-21T10:18:44;18.20;99.90
30764;DHT22;17497;51.476;7.770;2022-09-21T10:23:50;18.90;99.90
30764;DHT22;17497;51.476;7.770;2022-09-21T10:26:19;19.40;99.90
30764;DHT22;17497;51.476;7.770;2022-09-21T10:28:58;19.70;99.90
30764;DHT22;17497;51.476;7.770;2022-09-21T10:31:29;19.90;99.90
30764;DHT22;17497;51.476;7.770;2022-09-21T10:34:12;20.20;99.90
30764;DHT22;17497;51.476;7.770;2022-09-21T10:36:40;20.40;99.90
30764;DHT22;17497;51.476;7.770;2022-09-21T10:39:21;20.80;99.90
30764;DHT22;17497;51.476;7.770;2022-09-21T10:42:06;21.00;99.70
30764;DHT22;17497;51.476;7.770;2022-09-21T10:44:41;20.50;99.90
30764;DHT22;17497;51.476;7.770;2022-09-21T10:47:24;20.80;99.90
30764;DHT22;17497;51.476;7.770;2022-09-21T10:50:00;21.10;99.90
30764;DHT22;17497;51.476;7.770;2022-09-21T10:52:35;21.50;99.90
30764;DHT22;17497;51.476;7.770;2022-09-21T10:55:02;22.00;99.00
30764;DHT22;17497;51.476;7.770;2022-09-21T10:57:29;22.40;98.70
30764;DHT22;17497;51.476;7.770;2022-09-21T11:00:32;22.90;95.90
30764;DHT22;17497;51.476;7.770;2022-09-21T11:03:25;23.20;94.40
30764;DHT22;17497;51.476;7.770;2022-09-21T11:06:30;23.30;91.70
30764;DHT22;17497;51.476;7.770;2022-09-21T11:14:44;23.40;84.80
30764;DHT22;17497;51.476;7.770;2022-09-21T11:19:56;23.40;87.50
30764;DHT22;17497;51.476;7.770;2022-09-21T11:22:59;23.60;86.80
30764;DHT22;17497;51.476;7.770;2022-09-21T11:28:38;22.50;87.90
30764;DHT22;17497;51.476;7.770;2022-09-21T11:31:21;23.80;82.60
30764;DHT22;17497;51.476;7.770;2022-09-21T11:36:57;24.50;82.30
30764;DHT22;17497;51.476;7.770;2022-09-21T11:39:34;25.60;80.60
30764;DHT22;17497;51.476;7.770;2022-09-21T11:44:54;26.30;72.00
30764;DHT22;17497;51.476;7.770;2022-09-21T11:56:15;27.70;63.50
30764;DHT22;17497;51.476;7.770;2022-09-21T12:06:51;26.30;66.10
30764;DHT22;17497;51.476;7.770;2022-09-21T12:15:10;24.40;68.40
30764;DHT22;17497;51.476;7.770;2022-09-21T12:28:13;22.20;75.70
30764;DHT22;17497;51.476;7.770;2022-09-21T12:30:48;21.40;83.00
30764;DHT22;17497;51.476;7.770;2022-09-21T12:33:22;20.60;85.00
30764;DHT22;17497;51.476;7.770;2022-09-21T12:36:18;19.80;89.50
30764;DHT22;17497;51.476;7.770;2022-09-21T12:39:00;19.00;91.20
30764;DHT22;17497;51.476;7.770;2022-09-21T12:41:43;18.70;98.10
30764;DHT22;17497;51.476;7.770;2022-09-21T12:44:17;18.70;97.60
30764;DHT22;17497;51.476;7.770;2022-09-21T12:46:59;18.50;96.40
30764;DHT22;17497;51.476;7.770;2022-09-21T12:49:42;18.20;97.70
30764;DHT22;17497;51.476;7.770;2022-09-21T12:52:18;17.90;99.90
30764;DHT22;17497;51.476;7.770;2022-09-21T12:58:12;18.20;98.90
30764;DHT22;17497;51.476;7.770;2022-09-21T13:06:43;17.70;98.40
30764;DHT22;17497;51.476;7.770;2022-09-21T13:09:13;17.90;98.10
30764;DHT22;17497;51.476;7.770;2022-09-21T13:12:13;18.20;98.70
30764;DHT22;17497;51.476;7.770;2022-09-21T13:14:44;18.10;99.30
30764;DHT22;17497;51.476;7.770;2022-09-21T13:17:20;18.20;97.50
30764;DHT22;17497;51.476;7.770;2022-09-21T13:20:18;18.20;98.10
30764;DHT22;17497;51.476;7.770;2022-09-21T13:22:46;18.10;97.70
30764;DHT22;17497;51.476;7.770;2022-09-21T13:25:24;18.10;96.50
30764;DHT22;17497;51.476;7.770;2022-09-21T13:30:41;18.30;95.80
30764;DHT22;17497;51.476;7.770;2022-09-21T13:35:51;18.60;96.30
30764;DHT22;17497;51.476;7.770;2022-09-21T13:44:19;19.80;94.00
30764;DHT22;17497;51.476;7.770;2022-09-21T13:46:53;20.20;96.20
30764;DHT22;17497;51.476;7.770;2022-09-21T13:49:47;20.50;91.80
30764;DHT22;17497;51.476;7.770;2022-09-21T13:52:24;20.30;94.20
30764;DHT22;17497;51.476;7.770;2022-09-21T13:54:58;20.00;93.70
30764;DHT22;17497;51.476;7.770;2022-09-21T13:57:43;19.70;93.30
30764;DHT22;17497;51.476;7.770;2022-09-21T14:02:52;19.30;95.40
30764;DHT22;17497;51.476;7.770;2022-09-21T14:05:45;19.60;93.10
30764;DHT22;17497;51.476;7.770;2022-09-21T14:10:57;20.20;93.70
30764;DHT22;17497;51.476;7.770;2022-09-21T14:13:45;20.40;95.50
30764;DHT22;17497;51.476;7.770;2022-09-21T14:19:00;21.10;92.90
30764;DHT22;17497;51.476;7.770;2022-09-21T14:21:27;21.00;90.20
30764;DHT22;17497;51.476;7.770;2022-09-21T14:29:24;21.90;90.20
30764;DHT22;17497;51.476;7.770;2022-09-21T14:31:56;22.00;82.70
30764;DHT22;17497;51.476;7.770;2022-09-21T14:34:32;21.70;87.50
30764;DHT22;17497;51.476;7.770;2022-09-21T14:37:05;22.00;90.30
30764;DHT22;17497;51.476;7.770;2022-09-21T14:39:39;22.10;85.70
30764;DHT22;17497;51.476;7.770;2022-09-21T14:42:15;22.10;85.90
30764;DHT22;17497;51.476;7.770;2022-09-21T14:44:46;21.80;85.60
30764;DHT22;17497;51.476;7.770;2022-09-21T14:47:45;20.70;90.30
30764;DHT22;17497;51.476;7.770;2022-09-21T14:50:33;20.30;91.60
30764;DHT22;17497;51.476;7.770;2022-09-21T15:01:34;19.30;94.50
30764;DHT22;17497;51.476;7.770;2022-09-21T15:04:59;19.50;91.70
30764;DHT22;17497;51.476;7.770;2022-09-21T15:18:47;21.00;90.30
30764;DHT22;17497;51.476;7.770;2022-09-21T15:21:25;21.50;89.10
30764;DHT22;17497;51.476;7.770;2022-09-21T15:23:53;22.10;85.70
30764;DHT22;17497;51.476;7.770;2022-09-21T15:26:26;22.40;88.70
30764;DHT22;17497;51.476;7.770;2022-09-21T15:28:57;22.80;84.00
30764;DHT22;17497;51.476;7.770;2022-09-21T15:31:40;22.80;81.80
30764;DHT22;17497;51.476;7.770;2022-09-21T15:34:08;23.00;80.40
30764;DHT22;17497;51.476;7.770;2022-09-21T15:36:39;23.10;78.40
30764;DHT22;17497;51.476;7.770;2022-09-21T15:39:21;23.20;82.00
30764;DHT22;17497;51.476;7.770;2022-09-21T15:41:49;23.20;78.80
30764;DHT22;17497;51.476;7.770;2022-09-21T15:44:24;23.30;78.50
30764;DHT22;17497;51.476;7.770;2022-09-21T15:46:54;23.40;75.20
30764;DHT22;17497;51.476;7.770;2022-09-21T15:49:27;23.40;78.70
30764;DHT22;17497;51.476;7.770;2022-09-21T15:52:03;23.40;77.10
30764;DHT22;17497;51.476;7.770;2022-09-21T15:54:39;23.40;77.50
30764;DHT22;17497;51.476;7.770;2022-09-21T15:57:27;23.30;75.80
30764;DHT22;17497;51.476;7.770;2022-09-21T15:59:56;23.20;77.50
30764;DHT22;17497;51.476;7.770;2022-09-21T16:02:33;23.00;76.90
30764;DHT22;17497;51.476;7.770;2022-09-21T16:05:00;22.90;79.70
30764;DHT22;17497;51.476;7.770;2022-09-21T16:07:33;22.90;75.10
30764;DHT22;17497;51.476;7.770;2022-09-21T16:10:01;22.70;74.70
30764;DHT22;17497;51.476;7.770;2022-09-21T16:15:00;22.40;74.90
30764;DHT22;17497;51.476;7.770;2022-09-21T16:17:35;22.30;75.40
30764;DHT22;17497;51.476;7.770;2022-09-21T16:20:15;22.10;78.10
30764;DHT22;17497;51.476;7.770;2022-09-21T16:22:48;21.80;81.10
30764;DHT22;17497;51.476;7.770;2022-09-21T16:27:56;21.10;78.60
30764;DHT22;17497;51.476;7.770;2022-09-21T16:33:37;20.00;81.90
30764;DHT22;17497;51.476;7.770;2022-09-21T16:38:58;18.90;86.20
30764;DHT22;17497;51.476;7.770;2022-09-21T16:41:38;18.50;88.80
30764;DHT22;17497;51.476;7.770;2022-09-21T16:44:16;18.10;90.50
30764;DHT22;17497;51.476;7.770;2022-09-21T16:46:57;17.80;92.50
30764;DHT22;17497;51.476;7.770;2022-09-21T16:49:27;17.40;92.60
30764;DHT22;17497;51.476;7.770;2022-09-21T16:51:56;17.20;96.30
30764;DHT22;17497;51.476;7.770;2022-09-21T16:54:24;17.00;95.20
30764;DHT22;17497;51.476;7.770;2022-09-21T16:56:54;16.90;95.90
30764;DHT22;17497;51.476;7.770;2022-09-21T16:59:22;16.70;97.50
30764;DHT22;17497;51.476;7.770;2022-09-21T17:01:50;16.60;99.90
30764;DHT22;17497;51.476;7.770;2022-09-21T17:04:24;16.40;99.90
30764;DHT22;17497;51.476;7.770;2022-09-21T17:06:52;16.20;99.90
30764;DHT22;17497;51.476;7.770;2022-09-21T17:11:47;15.90;99.90
30764;DHT22;17497;51.476;7.770;2022-09-21T17:14:14;15.70;99.90
30764;DHT22;17497;51.476;7.770;2022-09-21T17:16:49;15.60;99.90
30764;DHT22;17497;51.476;7.770;2022-09-21T17:19:17;15.60;99.90
30764;DHT22;17497;51.476;7.770;2022-09-21T17:21:46;15.40;99.90
30764;DHT22;17497;51.476;7.770;2022-09-21T17:24:13;15.20;99.90
30764;DHT22;17497;51.476;7.770;2022-09-21T17:27:01;15.10;99.90
30764;DHT22;17497;51.476;7.770;2022-09-21T17:29:28;15.00;99.90
30764;DHT22;17497;51.476;7.770;2022-09-21T17:31:57;14.90;99.90
30764;DHT22;17497;51.476;7.770;2022-09-21T17:34:26;14.70;99.90
30764;DHT22;17497;51.476;7.770;2022-09-21T17:36:54;14.50;99.90
30764;DHT22;17497;51.476;7.770;2022-09-21T17:39:22;14.40;99.90
30764;DHT22;17497;51.476;7.770;2022-09-21T17:44:22;14.20;99.90
30764;DHT22;17497;51.476;7.770;2022-09-21T17:49:42;14.10;99.90
30764;DHT22;17497;51.476;7.770;2022-09-21T17:52:14;14.00;99.90
30764;DHT22;17497;51.476;7.770;2022-09-21T17:55:00;13.90;99.90
30764;DHT22;17497;51.476;7.770;2022-09-21T18:03:25;13.70;99.90
30764;DHT22;17497;51.476;7.770;2022-09-21T18:05:54;13.70;99.90
30764;DHT22;17497;51.476;7.770;2022-09-21T18:08:27;13.70;99.90
30764;DHT22;17497;51.476;7.770;2022-09-21T18:11:02;13.70;99.90
30764;DHT22;17497;51.476;7.770;2022-09-21T18:16:30;13.60;99.90
30764;DHT22;17497;51.476;7.770;2022-09-21T18:21:39;13.50;99.90
30764;DHT22;17497;51.476;7.770;2022-09-21T18:24:17;13.50;99.90
30764;DHT22;17497;51.476;7.770;2022-09-21T18:26:45;13.40;99.90
30764;DHT22;17497;51.476;7.770;2022-09-21T18:29:33;13.40;99.90
30764;DHT22;17497;51.476;7.770;2022-09-21T18:35:23;13.30;99.90
30764;DHT22;17497;51.476;7.770;2022-09-21T18:40:42;13.10;99.90
30764;DHT22;17497;51.476;7.770;2022-09-21T18:46:31;13.00;99.90
30764;DHT22;17497;51.476;7.770;2022-09-21T18:49:24;12.80;99.90
30764;DHT22;17497;51.476;7.770;2022-09-21T18:54:33;12.70;99.90
30764;DHT22;17497;51.476;7.770;2022-09-21T18:57:00;12.70;99.90
30764;DHT22;17497;51.476;7.770;2022-09-21T18:59:27;12.60;99.90
30764;DHT22;17497;51.476;7.770;2022-09-21T19:01:57;12.50;99.90
30764;DHT22;17497;51.476;7.770;2022-09-21T19:04:25;12.40;99.90
30764;DHT22;17497;51.476;7.770;2022-09-21T19:09:32;12.20;99.90
30764;DHT22;17497;51.476;7.770;2022-09-21T19:12:09;12.20;99.90
30764;DHT22;17497;51.476;7.770;2022-09-21T19:14:56;12.10;99.90
30764;DHT22;17497;51.476;7.770;2022-09-21T19:22:39;12.00;99.90
30764;DHT22;17497;51.476;7.770;2022-09-21T19:27:57;11.80;99.90
30764;DHT22;17497;51.476;7.770;2022-09-21T19:30:25;11.70;99.90
30764;DHT22;17497;51.476;7.770;2022-09-21T19:32:54;11.50;99.90
30764;DHT22;17497;51.476;7.770;2022-09-21T19:35:27;11.50;99.90
30764;DHT22;17497;51.476;7.770;2022-09-21T19:37:59;11.50;99.90
30764;DHT22;17497;51.476;7.770;2022-09-21T19:45:33;11.40;99.90
30764;DHT22;17497;51.476;7.770;2022-09-21T19:48:09;11.40;99.90
30764;DHT22;17497;51.476;7.770;2022-09-21T19:50:52;11.40;99.90
30764;DHT22;17497;51.476;7.770;2022-09-21T19:53:21;11.40;99.90
30764;DHT22;17497;51.476;7.770;2022-09-21T19:56:14;11.30;99.90
30764;DHT22;17497;51.476;7.770;2022-09-21T19:59:00;11.30;99.90
30764;DHT22;17497;51.476;7.770;2022-09-21T20:01:52;11.20;99.90
30764;DHT22;17497;51.476;7.770;2022-09-21T20:04:32;11.10;99.90